Time;durP1;ratioP1;P1;durP2;ratioP2;P2;SDS_P1;SDS_P2;PMS_P1;PMS_P2;Temp;Humidity;BMP_temperature;BMP_pressure;BME280_temperature;BME280_humidity;BME280_pressure;Samples;Min_cycle;Max_cycle;Signal;HPM_P1;HPM_P2
2022/05/20 00:00:48;;;;;;;12.98;9.20;;;13.10;99.90;;;;;;5037357;28;20124;-63
2022/05/20 00:03:15;;;;;;;13.43;10.02;;;13.10;99.90;;;;;;5072117;28;20072;-63
2022/05/20 00:05:42;;;;;;;15.60;10.77;;;;;;;;;;5071474;28;20138;-63
2022/05/20 00:08:08;;;;;;;18.17;10.95;;;12.50;99.90;;;;;;5071810;28;20527;-63
2022/05/20 00:10:35;;;;;;;15.57;11.00;;;;;;;;;;5072480;28;20036;-63
2022/05/20 00:13:01;;;;;;;14.93;10.40;;;13.20;99.90;;;;;;5071549;28;20040;-63
2022/05/20 00:15:29;;;;;;;15.20;9.90;;;13.00;99.90;;;;;;5072063;28;20488;-62
2022/05/20 00:17:56;;;;;;;14.68;9.80;;;12.60;99.90;;;;;;5071756;28;20036;-62
2022/05/20 00:20:24;;;;;;;18.45;10.00;;;;;;;;;;5052974;28;20047;-63
2022/05/20 00:22:50;;;;;;;19.90;10.65;;;;;;;;;;5053889;28;20056;-62
2022/05/20 00:28:03;;;;;;;14.25;9.90;;;12.60;99.90;;;;;;5071334;28;20102;-62
2022/05/20 00:30:29;;;;;;;13.63;9.70;;;13.10;99.90;;;;;;5053658;28;20043;-62
2022/05/20 00:32:55;;;;;;;14.68;10.05;;;12.40;99.90;;;;;;5053655;28;20036;-63
2022/05/20 00:35:22;;;;;;;11.52;8.57;;;12.80;99.90;;;;;;5071113;28;20458;-63
2022/05/20 00:37:48;;;;;;;14.73;9.80;;;12.70;99.90;;;;;;5072135;28;20032;-63
2022/05/20 00:40:18;;;;;;;18.13;9.75;;;12.60;99.90;;;;;;5054171;28;20044;-63
2022/05/20 00:42:43;;;;;;;20.40;11.32;;;12.70;99.90;;;;;;5053526;28;20119;-63
2022/05/20 00:45:10;;;;;;;19.02;11.70;;;;;;;;;;5071296;28;20607;-63
2022/05/20 00:47:36;;;;;;;15.40;11.13;;;;;;;;;;5053993;28;20045;-62
2022/05/20 00:50:05;;;;;;;14.88;10.93;;;;;;;;;;5036290;28;20044;-62
2022/05/20 00:52:33;;;;;;;16.90;11.90;;;;;;;;;;5072123;28;20122;-63
2022/05/20 00:55:07;;;;;;;16.10;12.30;;;;;;;;;;5070768;28;20033;-63
2022/05/20 00:57:36;;;;;;;16.02;12.10;;;;;;;;;;5054065;28;20489;-63
2022/05/20 01:00:05;;;;;;;16.92;11.95;;;;;;;;;;5071591;28;20500;-62
2022/05/20 01:02:32;;;;;;;15.18;11.75;;;;;;;;;;5053225;28;20041;-63
2022/05/20 01:05:03;;;;;;;18.55;12.25;;;;;;;;;;5071493;28;20036;-63
2022/05/20 01:07:31;;;;;;;17.20;12.27;;;;;;;;;;5071615;28;20397;-63
2022/05/20 01:09:57;;;;;;;19.05;12.80;;;;;;;;;;5052465;28;20048;-62
2022/05/20 01:12:27;;;;;;;17.35;13.50;;;;;;;;;;5037358;28;20405;-63
2022/05/20 01:14:53;;;;;;;17.90;13.60;;;;;;;;;;5053608;28;20079;-63
2022/05/20 01:17:19;;;;;;;15.52;12.13;;;;;;;;;;5052465;28;20086;-63
2022/05/20 01:19:55;;;;;;;25.40;12.65;;;;;;;;;;5053949;28;20374;-62
2022/05/20 01:22:38;;;;;;;17.58;12.40;;;11.90;99.90;;;;;;5053288;28;20060;-63
2022/05/20 01:25:05;;;;;;;21.15;12.55;;;;;;;;;;5052795;28;20057;-62
2022/05/20 01:27:31;;;;;;;19.88;16.00;;;;;;;;;;5071665;28;20068;-63
2022/05/20 01:29:57;;;;;;;16.63;13.85;;;;;;;;;;5053090;28;20514;-63
2022/05/20 01:32:23;;;;;;;18.40;13.50;;;12.50;99.90;;;;;;5056360;28;20040;-63
2022/05/20 01:34:49;;;;;;;16.38;13.95;;;;;;;;;;5075417;28;20123;-62
2022/05/20 01:37:14;;;;;;;18.42;13.48;;;12.40;99.90;;;;;;5074227;28;20378;-62
2022/05/20 01:39:42;;;;;;;17.63;13.60;;;12.50;99.90;;;;;;5040698;28;20040;-63
2022/05/20 01:42:31;;;;;;;18.95;13.90;;;12.60;99.90;;;;;;5074148;28;20047;-62
2022/05/20 01:45:04;;;;;;;17.90;12.88;;;11.90;99.90;;;;;;5055937;28;20097;-62
2022/05/20 01:47:54;;;;;;;17.25;11.85;;;12.20;99.90;;;;;;5075136;28;20048;-62
2022/05/20 01:50:27;;;;;;;16.70;12.45;;;12.40;99.90;;;;;;5074619;28;20044;-63
2022/05/20 01:53:17;;;;;;;15.82;11.52;;;12.10;99.90;;;;;;5056068;28;20033;-63
2022/05/20 01:55:50;;;;;;;16.52;11.95;;;12.20;99.90;;;;;;5074838;28;20079;-63
2022/05/20 01:58:32;;;;;;;19.00;14.10;;;12.20;99.90;;;;;;5056437;28;20040;-63
2022/05/20 02:01:03;;;;;;;18.45;11.80;;;12.40;99.90;;;;;;5074871;28;20036;-63
2022/05/20 02:03:43;;;;;;;15.05;11.77;;;12.30;99.90;;;;;;5074729;28;20040;-62
2022/05/20 02:06:19;;;;;;;14.95;11.20;;;11.80;99.90;;;;;;5073412;28;20584;-62
2022/05/20 02:08:53;;;;;;;17.52;12.57;;;11.90;99.90;;;;;;5074888;28;20040;-62
2022/05/20 02:11:45;;;;;;;17.13;12.27;;;11.80;99.90;;;;;;5074619;28;20032;-63
2022/05/20 02:14:24;;;;;;;15.30;11.32;;;12.20;99.90;;;;;;5073279;28;20090;-62
2022/05/20 02:17:03;;;;;;;15.65;12.50;;;12.00;99.90;;;;;;5056410;28;20044;-62
2022/05/20 02:19:52;;;;;;;17.65;11.52;;;11.90;99.90;;;;;;5055493;28;20044;-63
2022/05/20 02:22:22;;;;;;;15.77;11.02;;;11.60;99.90;;;;;;5073840;28;20045;-63
2022/05/20 02:24:50;;;;;;;18.80;12.82;;;11.90;99.90;;;;;;5074638;28;20102;-62
2022/05/20 02:27:25;;;;;;;16.90;12.38;;;12.10;99.90;;;;;;5055774;28;20505;-63
2022/05/20 02:30:13;;;;;;;16.10;11.95;;;11.90;99.90;;;;;;5073361;28;20073;-63
2022/05/20 02:33:06;;;;;;;14.80;12.35;;;11.80;99.90;;;;;;5074412;28;20457;-63
2022/05/20 02:35:33;;;;;;;21.42;14.70;;;11.80;99.90;;;;;;5038662;28;20041;-63
2022/05/20 02:38:25;;;;;;;17.23;12.93;;;11.50;99.90;;;;;;5073708;28;20119;-63
2022/05/20 02:40:52;;;;;;;17.42;12.88;;;11.90;99.90;;;;;;5068418;28;20048;-63
2022/05/20 02:43:19;;;;;;;15.00;11.45;;;11.50;99.90;;;;;;5073152;28;20032;-63
2022/05/20 02:45:46;;;;;;;22.52;13.55;;;11.80;99.90;;;;;;5074131;28;20056;-63
2022/05/20 02:48:18;;;;;;;17.05;13.70;;;12.00;99.90;;;;;;5055203;28;20052;-62
2022/05/20 02:50:44;;;;;;;17.40;12.70;;;;;;;;;;5073669;28;20076;-63
2022/05/20 02:53:10;;;;;;;19.27;13.82;;;11.60;99.90;;;;;;5073427;28;20130;-63
2022/05/20 02:55:36;;;;;;;19.88;12.18;;;;;;;;;;5072872;28;20060;-62
2022/05/20 02:58:03;;;;;;;18.38;13.15;;;;;;;;;;5055230;28;20048;-63
2022/05/20 03:05:56;;;;;;;16.35;13.63;;;12.30;99.90;;;;;;5073132;28;20405;-63
2022/05/20 03:08:23;;;;;;;20.17;14.35;;;;;;;;;;5073038;28;20041;-63
2022/05/20 03:10:49;;;;;;;19.17;14.40;;;;;;;;;;5072562;28;20083;-62
2022/05/20 03:13:15;;;;;;;18.45;14.45;;;11.70;99.90;;;;;;5055379;28;20036;-62
2022/05/20 03:15:41;;;;;;;17.75;12.68;;;11.30;99.90;;;;;;5072771;28;20396;-62
2022/05/20 03:18:08;;;;;;;21.23;15.57;;;11.60;99.90;;;;;;5054630;28;20044;-62
2022/05/20 03:20:34;;;;;;;16.58;10.90;;;;;;;;;;5073088;28;20080;-63
2022/05/20 03:23:01;;;;;;;15.50;11.65;;;;;;;;;;5071990;28;20500;-63
2022/05/20 03:25:26;;;;;;;16.13;12.40;;;11.60;99.90;;;;;;5054958;28;20048;-63
2022/05/20 03:27:53;;;;;;;14.93;11.05;;;11.90;99.90;;;;;;5072773;28;20098;-63
2022/05/20 03:30:19;;;;;;;15.93;12.20;;;11.20;99.90;;;;;;5053712;28;20060;-62
2022/05/20 03:32:45;;;;;;;15.10;12.60;;;12.00;99.90;;;;;;5054783;28;20028;-62
2022/05/20 03:35:12;;;;;;;16.98;12.02;;;11.60;99.90;;;;;;5054631;28;20086;-63
2022/05/20 03:37:38;;;;;;;15.93;11.70;;;11.80;99.90;;;;;;5054237;28;20048;-62
2022/05/20 03:40:04;;;;;;;16.77;13.57;;;11.70;99.90;;;;;;5055208;28;20048;-63
2022/05/20 03:42:30;;;;;;;17.42;12.85;;;11.60;99.90;;;;;;5055017;28;20397;-63
2022/05/20 03:44:55;;;;;;;14.85;11.55;;;11.40;99.90;;;;;;5071778;28;20039;-63
2022/05/20 03:47:21;;;;;;;13.05;11.55;;;11.80;99.90;;;;;;5054710;28;20426;-63
2022/05/20 03:49:47;;;;;;;15.40;11.10;;;11.50;99.90;;;;;;5038191;28;20141;-63
2022/05/20 03:52:13;;;;;;;17.02;12.02;;;11.30;99.90;;;;;;5053600;28;20120;-62
2022/05/20 03:54:39;;;;;;;15.48;11.70;;;12.00;99.90;;;;;;5071828;28;20037;-62
2022/05/20 03:57:05;;;;;;;14.63;11.60;;;12.00;99.90;;;;;;5072043;28;20035;-62
2022/05/20 03:59:35;;;;;;;15.65;12.23;;;11.90;99.90;;;;;;5071915;28;20477;-63
2022/05/20 04:02:01;;;;;;;15.23;11.50;;;11.60;99.90;;;;;;5054582;28;20535;-63
2022/05/20 04:04:45;;;;;;;15.57;12.80;;;11.50;99.90;;;;;;5072283;28;20072;-63
2022/05/20 04:07:12;;;;;;;18.95;14.52;;;11.70;99.90;;;;;;5071744;28;20040;-63
2022/05/20 04:09:38;;;;;;;17.15;13.43;;;11.60;99.90;;;;;;5072108;28;20061;-63
2022/05/20 04:12:07;;;;;;;14.98;12.32;;;12.00;99.90;;;;;;5053454;28;20039;-62
2022/05/20 04:14:33;;;;;;;19.20;13.88;;;11.70;99.90;;;;;;5072471;28;20410;-62
2022/05/20 04:16:59;;;;;;;17.00;13.13;;;13.20;99.90;;;;;;5053866;28;20515;-62
2022/05/20 04:19:27;;;;;;;17.52;13.35;;;11.80;99.90;;;;;;5036827;28;20080;-63
2022/05/20 04:21:56;;;;;;;15.32;12.35;;;11.80;99.90;;;;;;5072027;28;20037;-62
2022/05/20 04:24:23;;;;;;;16.35;12.95;;;12.10;99.90;;;;;;5071498;28;20059;-63
2022/05/20 04:26:49;;;;;;;16.20;12.18;;;12.30;99.90;;;;;;5071606;28;20111;-62
2022/05/20 04:29:15;;;;;;;14.98;12.63;;;11.80;99.90;;;;;;5053531;28;20047;-62
2022/05/20 04:31:46;;;;;;;18.98;13.40;;;11.90;99.90;;;;;;5072774;28;20037;-62
2022/05/20 04:34:11;;;;;;;14.88;11.90;;;13.10;99.90;;;;;;5053050;28;20044;-62
2022/05/20 04:36:37;;;;;;;14.30;11.93;;;12.00;99.90;;;;;;5071663;28;20051;-63
2022/05/20 04:39:03;;;;;;;17.50;11.38;;;12.00;99.90;;;;;;5072014;28;20048;-62
2022/05/20 04:46:59;;;;;;;16.25;12.23;;;13.00;99.90;;;;;;5071261;28;20056;-63
2022/05/20 04:49:26;;;;;;;13.50;11.23;;;13.40;99.90;;;;;;5071605;28;20048;-62
2022/05/20 04:51:52;;;;;;;15.63;12.70;;;11.80;99.90;;;;;;5037205;28;20115;-63
2022/05/20 04:57:02;;;;;;;16.77;13.15;;;12.00;99.90;;;;;;5053380;28;20563;-62
2022/05/20 04:59:28;;;;;;;16.80;13.80;;;11.80;99.90;;;;;;5053979;28;20128;-63
2022/05/20 05:01:53;;;;;;;15.13;13.52;;;12.20;99.90;;;;;;5071024;28;20119;-62
2022/05/20 05:04:20;;;;;;;17.00;12.75;;;13.30;99.90;;;;;;5071906;28;20062;-62
2022/05/20 05:06:47;;;;;;;16.67;12.52;;;12.10;99.90;;;;;;5075939;28;20040;-63
2022/05/20 05:09:13;;;;;;;21.10;13.50;;;12.20;99.90;;;;;;5074339;28;20044;-63
2022/05/20 05:11:40;;;;;;;20.33;12.43;;;12.30;99.90;;;;;;5075501;28;20054;-63
2022/05/20 05:14:10;;;;;;;16.52;12.25;;;;;;;;;;5057142;28;20032;-63
2022/05/20 05:16:38;;;;;;;17.70;13.70;;;12.70;99.90;;;;;;5057162;28;20032;-63
2022/05/20 05:19:04;;;;;;;15.40;12.95;;;12.70;99.90;;;;;;5075637;28;20393;-63
2022/05/20 05:21:30;;;;;;;16.20;12.95;;;12.70;99.90;;;;;;5057616;28;20036;-62
2022/05/20 05:23:55;;;;;;;17.25;12.05;;;12.80;99.90;;;;;;5074294;28;20102;-62
2022/05/20 05:26:22;;;;;;;14.93;11.52;;;;;;;;;;5056977;28;20040;-63
2022/05/20 05:28:48;;;;;;;15.25;12.68;;;13.40;99.90;;;;;;5075790;28;20076;-63
2022/05/20 05:31:14;;;;;;;14.90;11.82;;;;;;;;;;5056439;28;20122;-63
2022/05/20 05:33:40;;;;;;;14.85;11.27;;;;;;;;;;5075498;28;20037;-63
2022/05/20 05:36:06;;;;;;;14.85;11.25;;;;;;;;;;5074703;28;20039;-62
2022/05/20 05:38:32;;;;;;;15.18;10.63;;;13.50;99.90;;;;;;5040078;28;20508;-63
2022/05/20 05:40:58;;;;;;;14.77;11.18;;;13.60;99.90;;;;;;5074982;28;20032;-63
2022/05/20 05:43:24;;;;;;;19.58;12.90;;;;;;;;;;5074873;28;20074;-63
2022/05/20 05:45:50;;;;;;;15.77;10.95;;;;;;;;;;5057147;28;20037;-63
2022/05/20 05:48:17;;;;;;;13.05;9.65;;;;;;;;;;5057020;28;20043;-63
2022/05/20 05:50:44;;;;;;;18.25;11.15;;;;;;;;;;5056157;28;20119;-62
2022/05/20 05:53:15;;;;;;;13.43;8.77;;;;;;;;;;5056457;28;20052;-63
2022/05/20 05:55:42;;;;;;;14.32;7.55;;;;;;;;;;5074674;28;20044;-63
2022/05/20 05:58:08;;;;;;;13.00;7.85;;;14.40;99.90;;;;;;5056177;28;20040;-62
2022/05/20 06:00:34;;;;;;;13.95;7.40;;;14.40;99.90;;;;;;5075068;28;20052;-62
2022/05/20 06:02:59;;;;;;;11.35;7.20;;;14.40;99.90;;;;;;5074511;28;20045;-63
2022/05/20 06:05:25;;;;;;;14.15;8.68;;;14.80;99.90;;;;;;5055603;28;20774;-63
2022/05/20 06:07:53;;;;;;;12.25;7.90;;;14.30;99.90;;;;;;5074534;28;20047;-63
2022/05/20 06:10:20;;;;;;;13.95;8.02;;;14.60;99.90;;;;;;5074254;28;20119;-63
2022/05/20 06:12:45;;;;;;;13.80;6.68;;;14.80;99.90;;;;;;5056214;28;20511;-63
2022/05/20 06:15:17;;;;;;;11.52;6.55;;;14.60;99.90;;;;;;5039555;28;20090;-63
2022/05/20 06:17:43;;;;;;;10.93;6.68;;;14.90;99.90;;;;;;5073633;28;20478;-63
2022/05/20 06:20:11;;;;;;;11.73;8.02;;;14.90;99.90;;;;;;5055286;28;20040;-63
2022/05/20 06:22:36;;;;;;;10.98;6.43;;;15.00;99.90;;;;;;5056088;28;20044;-63
2022/05/20 06:25:03;;;;;;;14.02;6.85;;;15.00;99.90;;;;;;5074611;28;20051;-62
2022/05/20 06:27:30;;;;;;;13.05;6.78;;;14.70;99.90;;;;;;5072769;28;20045;-63
2022/05/20 06:29:56;;;;;;;10.13;6.78;;;14.60;99.90;;;;;;5070170;28;20119;-62
2022/05/20 06:32:21;;;;;;;14.57;7.07;;;14.40;99.90;;;;;;5056031;28;20515;-62
2022/05/20 06:40:19;;;;;;;13.37;6.50;;;14.90;99.90;;;;;;5072953;28;20044;-63
2022/05/20 06:42:45;;;;;;;15.15;6.90;;;14.90;99.90;;;;;;5055577;28;20052;-63
2022/05/20 06:45:12;;;;;;;8.85;5.93;;;15.10;99.90;;;;;;5058023;28;20045;-63
2022/05/20 06:47:39;;;;;;;14.57;7.20;;;14.50;99.90;;;;;;5054707;28;20408;-62
2022/05/20 06:50:07;;;;;;;14.18;7.20;;;14.80;99.90;;;;;;5055598;28;20400;-62
2022/05/20 06:52:33;;;;;;;10.82;6.90;;;15.00;99.90;;;;;;5055745;28;20580;-63
2022/05/20 06:55:00;;;;;;;13.00;7.03;;;15.30;99.90;;;;;;5055260;28;20036;-63
2022/05/20 06:57:26;;;;;;;12.10;6.63;;;14.90;99.90;;;;;;5049183;28;20036;-62
2022/05/20 06:59:52;;;;;;;14.38;7.95;;;15.40;99.90;;;;;;5087590;28;20097;-62
2022/05/20 07:02:19;;;;;;;11.00;6.82;;;;;;;;;;5066922;28;20037;-62
2022/05/20 07:04:44;;;;;;;17.17;7.88;;;15.00;99.90;;;;;;5050099;28;20049;-62
2022/05/20 07:07:10;;;;;;;12.80;6.95;;;15.00;99.90;;;;;;5049674;28;20051;-62
2022/05/20 07:09:37;;;;;;;13.05;6.70;;;15.50;99.90;;;;;;5053861;28;20040;-63
2022/05/20 07:12:04;;;;;;;10.75;6.50;;;15.10;99.90;;;;;;5070934;28;20068;-62
2022/05/20 07:14:30;;;;;;;10.90;7.68;;;15.70;99.90;;;;;;5050829;28;20033;-62
2022/05/20 07:16:56;;;;;;;12.77;7.57;;;;;;;;;;5051794;28;20082;-62
2022/05/20 07:19:23;;;;;;;14.73;9.00;;;15.90;99.90;;;;;;5032711;28;20048;-62
2022/05/20 07:21:48;;;;;;;11.32;6.85;;;16.10;99.90;;;;;;5063865;28;20046;-62
2022/05/20 07:24:14;;;;;;;10.57;5.97;;;16.30;99.90;;;;;;5052313;28;20056;-62
2022/05/20 07:26:40;;;;;;;10.57;5.68;;;16.10;99.90;;;;;;5071052;28;20052;-63
2022/05/20 07:29:08;;;;;;;10.43;5.20;;;16.50;99.90;;;;;;5052855;28;20115;-62
2022/05/20 07:31:35;;;;;;;10.88;5.72;;;16.50;99.90;;;;;;5043323;28;20048;-62
2022/05/20 07:34:01;;;;;;;11.85;6.15;;;16.10;99.90;;;;;;5062926;28;20355;-62
2022/05/20 07:36:27;;;;;;;11.38;6.72;;;16.70;99.90;;;;;;5053881;28;20047;-62
2022/05/20 07:38:53;;;;;;;11.38;6.75;;;;;;;;;;5045383;28;20489;-62
2022/05/20 07:41:22;;;;;;;12.35;7.07;;;16.40;99.90;;;;;;5064950;28;20044;-62
2022/05/20 07:43:48;;;;;;;10.43;5.50;;;16.20;99.90;;;;;;5037949;28;20474;-62
2022/05/20 07:46:14;;;;;;;9.65;5.53;;;16.60;99.90;;;;;;5042294;28;20094;-63
2022/05/20 07:48:39;;;;;;;11.48;5.68;;;16.80;99.90;;;;;;5060302;28;20072;-62
2022/05/20 07:51:12;;;;;;;8.63;5.88;;;16.70;99.90;;;;;;5051490;28;20029;-62
2022/05/20 07:53:41;;;;;;;8.65;6.05;;;16.60;99.90;;;;;;5054833;28;20076;-62
2022/05/20 07:56:22;;;;;;;11.25;6.05;;;17.10;99.90;;;;;;5057249;28;20513;-62
2022/05/20 07:59:02;;;;;;;9.98;6.35;;;16.50;99.90;;;;;;5053429;28;20080;-62
2022/05/20 08:01:31;;;;;;;12.20;6.95;;;16.90;99.90;;;;;;5071838;28;20120;-63
2022/05/20 08:06:46;;;;;;;8.77;5.93;;;16.90;99.90;;;;;;5060511;28;20072;-63
2022/05/20 08:09:12;;;;;;;11.27;6.18;;;;;;;;;;5059844;28;20458;-62
2022/05/20 08:11:38;;;;;;;11.95;6.95;;;16.30;99.90;;;;;;5037171;28;20102;-62
2022/05/20 08:14:04;;;;;;;8.88;6.65;;;17.00;99.90;;;;;;5055561;28;20455;-63
2022/05/20 08:16:30;;;;;;;13.77;6.03;;;16.80;99.90;;;;;;5065991;28;20032;-63
2022/05/20 08:18:55;;;;;;;11.50;5.75;;;16.90;99.90;;;;;;5043257;28;20067;-63
2022/05/20 08:21:21;;;;;;;9.95;5.20;;;;;;;;;;5047896;28;20036;-62
2022/05/20 08:23:47;;;;;;;12.82;6.13;;;17.00;99.90;;;;;;5042750;28;20186;-63
2022/05/20 08:26:17;;;;;;;9.43;5.55;;;17.10;99.90;;;;;;5040761;28;20616;-62
2022/05/20 08:28:44;;;;;;;9.50;5.30;;;17.20;99.90;;;;;;5028006;28;20042;-62
2022/05/20 08:31:10;;;;;;;11.85;4.97;;;17.10;99.90;;;;;;5010139;28;20045;-60
2022/05/20 08:33:35;;;;;;;9.00;5.50;;;17.00;99.90;;;;;;5037237;28;20103;-60
2022/05/20 08:36:03;;;;;;;11.18;6.22;;;17.40;99.90;;;;;;5033597;28;20034;-60
2022/05/20 08:38:29;;;;;;;10.98;5.15;;;;;;;;;;5051480;28;20037;-60
2022/05/20 08:40:57;;;;;;;8.40;4.97;;;17.10;99.90;;;;;;5055027;28;20104;-60
2022/05/20 08:43:25;;;;;;;13.45;5.30;;;17.40;99.90;;;;;;5017790;28;20383;-60
2022/05/20 08:45:52;;;;;;;14.38;6.03;;;17.40;99.90;;;;;;5037797;28;20077;-61
2022/05/20 08:48:18;;;;;;;8.93;5.63;;;17.50;99.90;;;;;;5033883;28;20041;-63
2022/05/20 08:50:53;;;;;;;10.40;6.47;;;17.40;99.90;;;;;;5039122;28;20044;-62
2022/05/20 08:53:35;;;;;;;9.52;5.57;;;17.50;99.90;;;;;;5038000;28;20425;-60
2022/05/20 08:56:04;;;;;;;9.93;5.22;;;17.50;99.90;;;;;;5055245;28;20033;-60
2022/05/20 08:58:30;;;;;;;10.93;4.28;;;17.40;99.90;;;;;;5057359;28;20190;-60
2022/05/20 09:00:56;;;;;;;11.60;5.10;;;17.90;99.90;;;;;;5056228;28;20045;-60
2022/05/20 09:03:22;;;;;;;10.77;5.18;;;;;;;;;;5058151;28;20044;-60
2022/05/20 09:05:49;;;;;;;11.77;5.95;;;;;;;;;;5057146;28;20045;-60
2022/05/20 09:08:19;;;;;;;9.43;4.75;;;;;;;;;;5057565;28;20037;-60
2022/05/20 09:10:45;;;;;;;9.77;5.22;;;;;;;;;;5057248;28;20045;-60
2022/05/20 09:13:11;;;;;;;9.45;4.32;;;;;;;;;;5040068;28;20562;-60
2022/05/20 09:15:49;;;;;;;11.27;5.88;;;;;;;;;;5057544;28;20040;-60
2022/05/20 09:18:18;;;;;;;9.38;4.80;;;;;;;;;;5056979;28;20520;-61
2022/05/20 09:20:44;;;;;;;8.32;5.10;;;;;;;;;;5058613;28;20124;-60
2022/05/20 09:23:11;;;;;;;9.18;4.88;;;;;;;;;;5055642;28;20141;-60
2022/05/20 09:25:46;;;;;;;8.65;4.70;;;;;;;;;;5057052;28;20052;-60
2022/05/20 09:28:18;;;;;;;6.53;4.57;;;;;;;;;;5056408;28;20091;-60
2022/05/20 09:30:48;;;;;;;9.13;5.05;;;;;;;;;;5057082;28;20112;-60
2022/05/20 09:33:23;;;;;;;7.93;4.20;;;;;;;;;;5040388;28;20073;-60
2022/05/20 09:35:57;;;;;;;8.80;5.05;;;;;;;;;;5057491;28;20106;-60
2022/05/20 09:38:43;;;;;;;9.23;5.13;;;;;;;;;;5056686;28;20123;-60
2022/05/20 09:41:29;;;;;;;10.05;4.18;;;;;;;;;;5056617;28;20056;-60
2022/05/20 09:43:58;;;;;;;8.07;4.50;;;18.30;99.90;;;;;;5055831;28;20045;-60
2022/05/20 09:46:29;;;;;;;8.25;4.10;;;18.30;99.90;;;;;;5057911;28;20065;-60
2022/05/20 09:49:16;;;;;;;8.20;4.90;;;18.30;99.90;;;;;;5056595;28;20520;-60
2022/05/20 09:51:54;;;;;;;11.27;4.80;;;18.40;99.90;;;;;;5054484;28;20037;-60
2022/05/20 09:54:28;;;;;;;8.38;4.18;;;18.30;99.90;;;;;;5053431;28;20044;-60
2022/05/20 09:57:22;;;;;;;8.05;4.03;;;18.00;99.90;;;;;;5036451;28;20045;-60
2022/05/20 09:59:57;;;;;;;10.68;4.50;;;18.10;99.90;;;;;;5053803;28;20103;-60
2022/05/20 10:02:37;;;;;;;9.00;4.03;;;18.80;99.90;;;;;;5054620;28;20040;-60
2022/05/20 10:05:36;;;;;;;7.90;3.85;;;18.80;99.90;;;;;;5052377;28;20056;-60
2022/05/20 10:08:37;;;;;;;9.60;4.55;;;18.10;99.90;;;;;;5054404;28;20043;-60
2022/05/20 10:11:27;;;;;;;7.82;3.97;;;18.00;99.90;;;;;;5053961;28;20037;-60
2022/05/20 10:14:00;;;;;;;7.82;4.00;;;18.10;99.90;;;;;;5053125;28;20120;-60
2022/05/20 10:16:35;;;;;;;9.82;4.40;;;18.10;99.90;;;;;;5054196;28;20044;-60
2022/05/20 10:19:16;;;;;;;8.88;5.47;;;18.10;99.90;;;;;;5053561;28;20090;-60
2022/05/20 10:22:23;;;;;;;10.25;5.22;;;18.80;99.90;;;;;;5053512;28;20041;-60
2022/05/20 10:25:08;;;;;;;9.13;4.78;;;18.20;99.90;;;;;;5015944;28;20793;-60
2022/05/20 10:27:57;;;;;;;8.00;4.53;;;18.20;99.90;;;;;;5053091;28;20045;-60
2022/05/20 10:33:28;;;;;;;8.60;4.82;;;18.00;99.90;;;;;;5011911;28;20088;-59
2022/05/20 10:36:20;;;;;;;7.18;4.28;;;18.30;99.90;;;;;;5038722;28;20360;-59
2022/05/20 10:39:06;;;;;;;7.65;3.75;;;18.40;99.90;;;;;;5032233;28;20640;-59
2022/05/20 10:41:37;;;;;;;6.25;3.95;;;17.90;99.90;;;;;;5019546;28;20060;-59
2022/05/20 10:50:23;;;;;;;6.55;4.15;;;18.20;99.90;;;;;;5012964;28;20050;-60
2022/05/20 10:53:08;;;;;;;9.63;4.57;;;18.10;99.90;;;;;;5020026;28;20076;-60
2022/05/20 10:55:43;;;;;;;;;;;18.30;99.90;;;;;;5026922;28;20127;-59
2022/05/20 10:58:23;;;;;;;8.48;4.30;;;18.30;99.90;;;;;;5028388;28;20330;-59
2022/05/20 11:00:52;;;;;;;6.72;4.00;;;18.30;99.90;;;;;;5026199;28;20045;-60
2022/05/20 11:03:33;;;;;;;7.28;4.30;;;19.20;99.90;;;;;;5030486;28;21492;-59
2022/05/20 11:06:08;;;;;;;7.07;4.15;;;;;;;;;;5023508;28;20127;-60
2022/05/20 11:09:01;;;;;;;7.57;4.35;;;18.60;99.90;;;;;;5020640;28;20064;-60
2022/05/20 11:11:27;;;;;;;7.32;4.25;;;18.70;99.90;;;;;;5030966;28;20046;-60
2022/05/20 11:13:55;;;;;;;7.18;4.85;;;;;;;;;;5030249;28;20490;-60
2022/05/20 11:16:33;;;;;;;8.18;4.90;;;;;;;;;;5030561;28;20521;-60
2022/05/20 11:19:07;;;;;;;8.80;4.60;;;;;;;;;;5039273;28;20410;-60
2022/05/20 11:22:06;;;;;;;9.35;4.65;;;18.50;99.90;;;;;;4997533;28;20557;-60
2022/05/20 11:25:03;;;;;;;7.43;4.28;;;18.60;99.90;;;;;;5043336;28;20066;-60
2022/05/20 11:27:56;;;;;;;6.93;4.43;;;18.50;99.90;;;;;;5026382;28;20128;-60
2022/05/20 11:30:42;;;;;;;9.27;4.90;;;18.80;99.90;;;;;;5010534;28;20088;-60
2022/05/20 11:33:37;;;;;;;7.65;5.20;;;18.40;99.90;;;;;;5016517;28;20382;-60
2022/05/20 11:36:21;;;;;;;;;;;18.80;99.90;;;;;;5022653;28;20037;-61
2022/05/20 11:39:26;;;;;;;9.73;5.90;;;19.30;99.90;;;;;;5029599;28;19932;-60
2022/05/20 11:41:55;;;;;;;12.70;5.72;;;;;;;;;;5028982;28;20052;-60
2022/05/20 11:44:52;;;;;;;12.68;5.53;;;19.20;99.90;;;;;;5026947;28;20060;-61
2022/05/20 11:47:53;;;;;;;7.32;5.15;;;18.90;99.90;;;;;;5029744;28;20052;-60
2022/05/20 11:50:43;;;;;;;11.00;6.75;;;18.90;99.90;;;;;;5029221;28;20053;-60
2022/05/20 11:53:14;;;;;;;12.57;6.78;;;18.60;99.90;;;;;;5028126;28;20048;-60
2022/05/20 11:55:42;;;;;;;9.18;6.50;;;18.60;99.90;;;;;;5029507;28;20557;-60
2022/05/20 11:58:24;;;;;;;9.40;6.40;;;18.50;99.90;;;;;;5020442;28;20392;-60
2022/05/20 12:00:51;;;;;;;11.02;6.53;;;18.60;99.90;;;;;;5027086;28;20057;-60
2022/05/20 12:03:22;;;;;;;10.85;6.60;;;18.70;99.90;;;;;;5025365;28;20502;-60
2022/05/20 12:05:50;;;;;;;10.73;7.05;;;19.00;99.90;;;;;;5029502;28;20107;-60
2022/05/20 12:08:37;;;;;;;9.13;6.55;;;18.90;99.90;;;;;;5028827;28;20033;-60
2022/05/20 12:11:18;;;;;;;7.50;5.25;;;18.70;99.90;;;;;;5024933;28;20049;-60
2022/05/20 12:14:03;;;;;;;8.77;5.40;;;18.50;99.90;;;;;;5027987;28;20041;-60
2022/05/20 12:16:30;;;;;;;7.38;4.65;;;18.60;99.90;;;;;;5028915;28;20037;-60
2022/05/20 12:24:44;;;;;;;8.05;4.55;;;18.60;99.90;;;;;;5028462;28;20557;-60
2022/05/20 12:27:36;;;;;;;8.80;5.35;;;18.60;99.90;;;;;;5028352;28;20037;-60
2022/05/20 12:30:08;;;;;;;9.45;4.88;;;18.90;99.90;;;;;;5025744;28;20065;-59
2022/05/20 12:32:36;;;;;;;9.38;5.75;;;18.80;99.90;;;;;;5028263;28;20558;-59
2022/05/20 12:35:10;;;;;;;9.75;5.47;;;18.50;99.90;;;;;;5031332;28;20114;-60
2022/05/20 12:37:41;;;;;;;12.57;6.60;;;18.90;99.90;;;;;;5024334;28;20059;-60
2022/05/20 12:40:24;;;;;;;9.90;5.75;;;18.70;99.90;;;;;;5026991;28;20053;-59
2022/05/20 12:43:03;;;;;;;7.68;5.05;;;18.60;99.90;;;;;;5028760;28;20148;-60
2022/05/20 12:45:53;;;;;;;8.05;4.70;;;18.50;99.90;;;;;;5028557;28;20053;-59
2022/05/20 12:48:24;;;;;;;7.45;3.85;;;18.60;99.90;;;;;;4998627;28;20137;-60
2022/05/20 12:51:05;;;;;;;8.43;3.55;;;18.50;99.90;;;;;;5012690;28;20046;-59
2022/05/20 12:53:33;;;;;;;8.38;3.58;;;18.60;99.90;;;;;;5019654;28;20051;-59
2022/05/20 12:56:00;;;;;;;6.97;4.22;;;18.80;99.90;;;;;;5027246;28;20095;-59
2022/05/20 12:58:29;;;;;;;9.75;3.90;;;19.10;99.90;;;;;;5028694;28;20521;-59
2022/05/20 13:00:58;;;;;;;8.10;4.30;;;19.00;99.90;;;;;;5028259;28;20077;-59
2022/05/20 13:03:29;;;;;;;8.13;4.20;;;19.30;99.90;;;;;;5028133;28;20398;-59
2022/05/20 13:06:16;;;;;;;7.53;4.20;;;18.50;99.90;;;;;;5028625;28;20398;-60
2022/05/20 13:08:46;;;;;;;6.95;3.70;;;18.50;99.90;;;;;;5014553;28;20038;-59
2022/05/20 13:11:13;;;;;;;8.25;3.90;;;18.40;99.90;;;;;;5028162;28;20049;-59
2022/05/20 13:13:40;;;;;;;7.90;4.05;;;18.40;99.90;;;;;;5027507;28;20081;-59
2022/05/20 13:16:07;;;;;;;8.45;4.40;;;;;;;;;;5026799;28;20521;-59
2022/05/20 13:18:37;;;;;;;7.07;4.00;;;;;;;;;;5026843;28;20056;-59
2022/05/20 13:21:07;;;;;;;7.43;3.55;;;;;;;;;;5025405;28;20103;-59
2022/05/20 13:23:37;;;;;;;7.40;3.95;;;;;;;;;;5030154;28;20061;-59
2022/05/20 13:26:03;;;;;;;6.15;3.33;;;;;;;;;;5039890;28;20053;-59
2022/05/20 13:28:33;;;;;;;5.30;2.75;;;18.40;99.90;;;;;;5034994;28;20049;-59
2022/05/20 13:31:08;;;;;;;5.57;3.33;;;18.00;99.90;;;;;;5022292;28;20057;-59
2022/05/20 13:33:37;;;;;;;8.48;3.35;;;18.10;99.90;;;;;;5042619;28;20164;-59
2022/05/20 13:36:05;;;;;;;6.35;2.88;;;18.70;99.90;;;;;;5042924;28;20101;-59
2022/05/20 13:38:34;;;;;;;7.00;2.92;;;18.20;99.90;;;;;;5039803;28;20642;-59
2022/05/20 13:41:00;;;;;;;7.03;2.70;;;17.90;99.90;;;;;;5028725;28;20049;-59
2022/05/20 13:43:28;;;;;;;6.28;3.22;;;;;;;;;;5034293;28;20076;-60
2022/05/20 13:51:34;;;;;;;6.05;2.95;;;;;;;;;;5045766;28;20048;-59
2022/05/20 13:54:03;;;;;;;7.47;3.90;;;;;;;;;;5035112;28;20050;-59
2022/05/20 13:56:37;;;;;;;7.47;3.38;;;;;;;;;;5042360;28;20041;-59
2022/05/20 13:59:17;;;;;;;9.82;4.47;;;;;;;;;;5030787;28;20069;-59
2022/05/20 14:01:46;;;;;;;11.85;4.60;;;;;;;;;;5031107;28;20041;-59
2022/05/20 14:04:12;;;;;;;9.63;5.53;;;;;;;;;;5031093;28;20041;-59
2022/05/20 14:06:38;;;;;;;11.15;4.05;;;;;;;;;;5031420;28;20033;-58
2022/05/20 14:09:04;;;;;;;10.02;5.20;;;;;;;;;;5013464;28;20048;-60